Time;durP1;ratioP1;P1;durP2;ratioP2;P2;SDS_P1;SDS_P2;PMS_P1;PMS_P2;Temp;Humidity;BMP_temperature;BMP_pressure;BME280_temperature;BME280_humidity;BME280_pressure;Samples;Min_cycle;Max_cycle;Signal;HPM_P1;HPM_P2
2023/04/26 00:02:12;;;;;;;;;;;8.90;59.80;;;4.21;100.00;95507.41;4955037;28;19957;-48
2023/04/26 00:04:40;;;;;;;;;;;8.90;59.80;;;4.18;100.00;95507.84;4945174;28;20009;-48
2023/04/26 00:07:06;;;;;;;;;;;8.90;59.80;;;4.14;100.00;95502.22;4935032;29;19965;-48
2023/04/26 00:09:32;;;;;;;;;;;8.80;59.80;;;4.12;100.00;95503.47;4949966;28;20373;-51
2023/04/26 00:11:58;;;;;;;;;;;8.80;59.90;;;4.01;100.00;95509.50;4954771;28;20039;-51
2023/04/26 00:14:24;;;;;;;;;;;8.80;59.90;;;4.01;100.00;95509.50;4953407;28;19917;-49
2023/04/26 00:16:50;;;;;;;;;;;8.80;59.90;;;3.99;100.00;95509.75;4953345;28;19910;-47
2023/04/26 00:19:17;;;;;;;;;;;8.70;60.00;;;3.97;100.00;95511.00;4954736;28;20448;-54
2023/04/26 00:21:43;;;;;;;;;;;8.70;60.00;;;3.94;100.00;95518.31;4953369;28;19910;-53
2023/04/26 00:24:09;;;;;;;;;;;8.70;60.10;;;3.93;100.00;95513.28;4954382;28;20297;-53
2023/04/26 00:26:35;;;;;;;;;;;8.70;60.30;;;3.94;100.00;95514.88;4954586;28;19910;-56
2023/04/26 00:29:03;;;;;;;;;;;8.70;60.30;;;3.91;100.00;95512.69;4952905;28;19916;-53
2023/04/26 00:31:29;;;;;;;;;;;8.70;60.40;;;3.96;100.00;95522.56;4954360;28;19910;-51
2023/04/26 00:33:54;;;;;;;;;;;8.70;60.50;;;3.92;100.00;95517.75;4953137;28;19914;-54
2023/04/26 00:36:20;;;;;;;;;;;8.70;60.50;;;3.96;100.00;95520.72;4954375;28;19910;-56
2023/04/26 00:38:46;;;;;;;;;;;8.70;60.50;;;3.98;100.00;95523.97;4952994;28;19910;-58
2023/04/26 00:41:12;;;;;;;;;;;8.70;60.60;;;3.99;100.00;95527.38;4952155;28;19910;-54
2023/04/26 00:43:39;;;;;;;;;;;8.80;60.60;;;4.00;100.00;95521.88;4953726;28;20395;-56
2023/04/26 00:46:07;;;;;;;;;;;8.80;60.70;;;4.01;100.00;95523.50;4952514;28;19977;-57
2023/04/26 00:48:33;;;;;;;;;;;8.80;60.70;;;4.03;100.00;95520.63;4954294;28;19960;-56
2023/04/26 00:51:00;;;;;;;;;;;8.80;60.70;;;4.08;100.00;95518.13;4952881;28;19914;-56
2023/04/26 00:53:26;;;;;;;;;;;8.90;60.70;;;4.10;100.00;95518.69;4953139;28;19910;-54
2023/04/26 00:55:53;;;;;;;;;;;8.90;60.70;;;4.11;100.00;95520.31;4953661;28;20041;-54
2023/04/26 00:58:19;;;;;;;;;;;8.90;60.70;;;4.11;100.00;95509.78;4952755;28;19910;-54
2023/04/26 01:00:45;;;;;;;;;;;8.90;60.70;;;4.12;100.00;95512.19;4969878;28;19910;-56
2023/04/26 01:03:11;;;;;;;;;;;8.90;60.70;;;4.12;100.00;95506.09;4972929;28;20011;-56
2023/04/26 01:05:37;;;;;;;;;;;9.00;60.80;;;4.15;100.00;95518.84;4970545;28;19960;-55
2023/04/26 01:08:05;;;;;;;;;;;8.90;60.80;;;4.15;100.00;95511.72;4973059;28;20366;-53
2023/04/26 01:10:34;;;;;;;;;;;9.00;60.80;;;4.15;100.00;95511.72;4964807;28;19917;-55
2023/04/26 01:13:02;;;;;;;;;;;8.90;60.80;;;4.12;100.00;95509.53;4952580;28;19910;-53
2023/04/26 01:15:29;;;;;;;;;;;9.00;60.90;;;4.12;100.00;95511.38;4952849;28;19936;-56
2023/04/26 01:17:56;;;;;;;;;;;8.90;60.90;;;4.10;100.00;95502.88;4952880;28;19916;-56
2023/04/26 01:20:23;;;;;;;;;;;8.90;60.90;;;4.11;100.00;95504.50;4953416;28;20570;-56
2023/04/26 01:22:49;;;;;;;;;;;8.90;60.90;;;4.09;100.00;95509.19;4951058;28;20328;-54
2023/04/26 01:25:16;;;;;;;;;;;8.90;61.00;;;4.06;100.00;95499.91;4952052;28;20280;-56
2023/04/26 01:27:41;;;;;;;;;;;8.90;61.00;;;4.06;100.00;95493.81;4952828;28;19910;-55
2023/04/26 01:30:08;;;;;;;;;;;8.90;61.10;;;4.05;100.00;95498.31;4950443;28;19917;-53
2023/04/26 01:32:34;;;;;;;;;;;8.90;61.00;;;4.04;100.00;95495.88;4949302;28;19934;-57
2023/04/26 01:35:01;;;;;;;;;;;8.80;61.10;;;4.04;100.00;95498.50;4943987;28;19910;-57
2023/04/26 01:37:27;;;;;;;;;;;8.80;61.10;;;4.01;100.00;95512.97;4953428;28;20293;-53
2023/04/26 01:39:52;;;;;;;;;;;8.80;61.20;;;3.99;100.00;95501.84;4950541;28;19910;-54
2023/04/26 01:42:18;;;;;;;;;;;8.80;61.20;;;3.96;100.00;95510.19;4934154;29;19934;-55
2023/04/26 01:44:44;;;;;;;;;;;8.80;61.20;;;3.94;100.00;95509.59;4934179;29;19910;-52
2023/04/26 01:47:10;;;;;;;;;;;8.70;61.20;;;3.89;100.00;95499.75;4957033;28;19991;-55
2023/04/26 01:49:35;;;;;;;;;;;8.70;61.20;;;3.85;100.00;95503.84;4972593;28;19910;-53
2023/04/26 01:52:01;;;;;;;;;;;8.70;61.20;;;3.81;100.00;95500.06;4968096;28;20013;-54
2023/04/26 01:54:27;;;;;;;;;;;8.60;61.20;;;3.80;100.00;95500.28;4953320;28;19910;-54
2023/04/26 01:56:53;;;;;;;;;;;8.60;61.30;;;3.75;100.00;95500.94;4952993;28;19916;-55
2023/04/26 01:59:18;;;;;;;;;;;8.50;61.20;;;3.70;100.00;95493.72;4950784;28;20261;-57
2023/04/26 02:01:45;;;;;;;;;;;8.50;61.30;;;3.64;100.00;95494.59;4953458;28;20400;-52
2023/04/26 02:04:10;;;;;;;;;;;8.50;61.30;;;3.59;100.00;95491.03;4951951;28;19915;-57
2023/04/26 02:06:36;;;;;;;;;;;8.40;61.20;;;3.58;100.00;95487.59;4953163;28;19910;-55
2023/04/26 02:09:08;;;;;;;;;;;8.30;61.30;;;3.53;100.00;95484.81;4952998;28;19909;-55
2023/04/26 02:11:34;;;;;;;;;;;8.30;62.10;;;3.44;100.00;95480.88;4951918;28;20308;-55
2023/04/26 02:14:01;;;;;;;;;;;8.20;61.30;;;3.35;100.00;95480.38;4953279;28;19910;-55
2023/04/26 02:16:27;;;;;;;;;;;8.20;61.30;;;3.25;100.00;95483.53;4952103;28;19918;-57
2023/04/26 02:18:53;;;;;;;;;;;8.10;61.30;;;3.22;100.00;95475.28;4952903;28;20001;-54
2023/04/26 02:21:20;;;;;;;;;;;8.00;62.10;;;3.13;100.00;95471.31;4953082;28;19948;-55
2023/04/26 02:23:47;;;;;;;;;;;7.90;61.40;;;3.06;100.00;95486.41;4950209;28;19988;-54
2023/04/26 02:26:14;;;;;;;;;;;7.90;61.40;;;2.97;100.00;95485.88;4952493;28;19914;-58
2023/04/26 02:28:40;;;;;;;;;;;7.80;61.50;;;2.90;100.00;95483.31;4951154;28;19910;-55
2023/04/26 02:31:06;;;;;;;;;;;7.80;61.60;;;2.90;100.00;95480.69;4975518;28;20008;-57
2023/04/26 02:33:33;;;;;;;;;;;7.70;62.40;;;2.89;100.00;95478.28;4975984;28;19909;-50
2023/04/26 02:36:04;;;;;;;;;;;7.70;61.70;;;2.82;100.00;95478.38;4974528;28;20284;-58
2023/04/26 02:38:30;;;;;;;;;;;7.60;61.70;;;2.79;100.00;95476.16;4975793;28;19941;-57
2023/04/26 02:41:01;;;;;;;;;;;7.60;61.80;;;2.73;100.00;95469.16;4952524;28;20314;-57
2023/04/26 02:43:27;;;;;;;;;;;7.50;61.70;;;2.67;100.00;95475.28;4937288;29;19914;-57
2023/04/26 02:45:52;;;;;;;;;;;7.50;61.80;;;2.64;100.00;95475.72;4940030;28;19977;-56
2023/04/26 02:48:18;;;;;;;;;;;7.40;61.80;;;2.55;100.00;95462.81;4975722;28;19918;-56
2023/04/26 02:50:46;;;;;;;;;;;7.40;61.90;;;2.53;100.00;95462.22;4975604;28;19957;-57
2023/04/26 02:53:12;;;;;;;;;;;7.40;62.00;;;2.51;100.00;95466.91;4957373;28;20009;-58
2023/04/26 02:55:38;;;;;;;;;;;7.30;62.00;;;2.52;100.00;95467.72;4936729;29;19973;-56
2023/04/26 02:58:05;;;;;;;;;;;7.30;62.10;;;2.49;100.00;95470.78;4943492;28;19916;-51
2023/04/26 03:00:32;;;;;;;;;;;7.30;62.20;;;2.47;100.00;95467.56;4975613;28;19976;-55
2023/04/26 03:02:58;;;;;;;;;;;7.30;62.30;;;2.45;100.00;95469.63;4975417;28;20327;-53
2023/04/26 03:05:24;;;;;;;;;;;7.30;62.30;;;2.47;100.00;95468.34;4960030;28;19913;-54
2023/04/26 03:07:51;;;;;;;;;;;7.20;62.40;;;2.49;100.00;95463.69;4955972;28;19917;-56
2023/04/26 03:10:17;;;;;;;;;;;7.20;62.40;;;2.50;100.00;95467.13;4954713;28;19914;-57
2023/04/26 03:12:42;;;;;;;;;;;7.20;62.50;;;2.47;100.00;95468.34;4970641;28;19917;-55
2023/04/26 03:15:08;;;;;;;;;;;7.20;63.20;;;2.45;100.00;95470.41;4975109;28;19932;-56
2023/04/26 03:17:34;;;;;;;;;;;7.20;62.50;;;2.41;100.00;95469.22;4958014;28;19936;-53
2023/04/26 03:20:00;;;;;;;;;;;7.20;62.60;;;2.41;100.00;95469.22;4955511;28;19929;-57
2023/04/26 03:22:26;;;;;;;;;;;7.10;62.50;;;2.43;100.00;95466.38;4954395;28;20342;-56
2023/04/26 03:24:51;;;;;;;;;;;7.20;62.70;;;2.42;100.00;95470.84;4955764;28;20024;-58
2023/04/26 03:27:17;;;;;;;;;;;7.20;62.70;;;2.41;100.00;95477.09;4955699;28;19910;-55
2023/04/26 03:29:43;;;;;;;;;;;7.20;62.70;;;2.40;100.00;95472.88;4954226;28;19910;-54
2023/04/26 03:32:08;;;;;;;;;;;7.20;62.70;;;2.41;100.00;95465.78;4955441;28;19969;-53
2023/04/26 03:34:34;;;;;;;;;;;7.20;62.70;;;2.43;100.00;95471.63;4954058;28;19914;-57
2023/04/26 03:37:01;;;;;;;;;;;7.20;62.80;;;2.44;100.00;95468.78;4955724;28;19910;-57
2023/04/26 03:39:27;;;;;;;;;;;7.30;62.90;;;2.47;100.00;95484.13;4954004;28;20262;-57
2023/04/26 03:41:52;;;;;;;;;;;7.30;63.00;;;2.51;100.00;95484.53;4948610;28;19917;-57
2023/04/26 03:44:18;;;;;;;;;;;7.30;63.00;;;2.53;100.00;95478.00;4936210;29;20369;-56
2023/04/26 03:46:44;;;;;;;;;;;7.30;63.00;;;2.57;100.00;95474.94;4943542;28;19910;-54
2023/04/26 03:49:09;;;;;;;;;;;7.30;63.00;;;2.60;100.00;95471.88;4955178;28;19917;-52
2023/04/26 03:51:35;;;;;;;;;;;7.40;63.20;;;2.62;100.00;95473.28;4954736;28;20328;-53
2023/04/26 03:54:01;;;;;;;;;;;7.40;63.90;;;2.66;100.00;95468.38;4950357;28;20431;-54
2023/04/26 03:56:27;;;;;;;;;;;7.40;63.10;;;2.67;100.00;95468.19;4934337;29;20361;-57
2023/04/26 03:58:52;;;;;;;;;;;7.50;63.10;;;2.70;100.00;95469.59;4935312;29;19911;-55
2023/04/26 04:01:19;;;;;;;;;;;7.50;63.10;;;2.72;100.00;95465.69;4943769;28;19910;-56
2023/04/26 04:03:45;;;;;;;;;;;7.50;63.10;;;2.71;100.00;95464.09;4963820;28;19918;-58
2023/04/26 04:06:11;;;;;;;;;;;7.50;63.10;;;2.74;100.00;95462.84;4973883;28;20004;-56
2023/04/26 04:08:37;;;;;;;;;;;7.50;63.10;;;2.75;100.00;95459.19;4974240;28;19913;-58
2023/04/26 04:11:03;;;;;;;;;;;7.50;63.10;;;2.72;100.00;95452.53;4957278;28;19917;-57
2023/04/26 04:13:29;;;;;;;;;;;7.50;63.00;;;2.73;100.00;95451.53;4954672;28;19910;-57
2023/04/26 04:15:54;;;;;;;;;;;7.50;63.00;;;2.75;100.00;95456.56;4953708;28;19914;-57
2023/04/26 04:18:20;;;;;;;;;;;7.50;63.00;;;2.72;100.00;95459.63;4959754;28;19917;-52
2023/04/26 04:20:46;;;;;;;;;;;7.50;63.00;;;2.65;100.00;95469.41;4973312;28;20267;-54
2023/04/26 04:23:11;;;;;;;;;;;7.40;62.90;;;2.62;100.00;95468.03;4966321;28;20369;-53
2023/04/26 04:25:38;;;;;;;;;;;7.40;63.00;;;2.60;100.00;95464.81;4973659;28;20291;-53
2023/04/26 04:28:04;;;;;;;;;;;7.30;62.90;;;2.52;100.00;95468.53;4984925;28;19918;-55
2023/04/26 04:30:30;;;;;;;;;;;7.30;62.80;;;2.45;100.00;95464.34;4954092;28;19976;-55
2023/04/26 04:32:59;;;;;;;;;;;7.30;62.90;;;2.38;100.00;95463.59;4954157;28;20316;-58
2023/04/26 04:35:27;;;;;;;;;;;7.20;62.90;;;2.33;100.00;95471.34;4967073;28;20008;-55
2023/04/26 04:37:56;;;;;;;;;;;7.20;62.90;;;2.28;100.00;95471.97;4973922;28;19972;-56
2023/04/26 04:40:23;;;;;;;;;;;7.20;63.00;;;2.24;100.00;95466.34;4961312;28;19917;-56
2023/04/26 04:42:49;;;;;;;;;;;7.20;63.00;;;2.22;100.00;95464.94;4934915;28;19922;-57
2023/04/26 04:45:16;;;;;;;;;;;7.20;63.00;;;2.20;100.00;95462.53;4935006;29;20297;-58
2023/04/26 04:47:42;;;;;;;;;;;7.10;63.00;;;2.18;100.00;95469.81;4948349;28;19910;-58
2023/04/26 04:50:08;;;;;;;;;;;7.10;63.00;;;2.17;100.00;95470.06;4956213;28;19910;-56
2023/04/26 04:52:35;;;;;;;;;;;7.10;63.00;;;2.19;100.00;95466.16;4953097;28;19914;-56
2023/04/26 04:55:02;;;;;;;;;;;7.10;63.10;;;2.26;100.00;95469.56;4954117;28;19913;-57
2023/04/26 04:57:29;;;;;;;;;;;7.10;63.10;;;2.37;100.00;95469.88;4952695;28;19910;-56
2023/04/26 04:59:55;;;;;;;;;;;7.10;63.10;;;2.47;100.00;95475.44;4952762;28;19941;-58
2023/04/26 05:02:20;;;;;;;;;;;7.20;63.20;;;2.60;100.00;95482.41;4953661;28;20402;-58
2023/04/26 05:04:46;;;;;;;;;;;7.30;63.30;;;2.75;100.00;95474.97;4961345;28;19964;-58
2023/04/26 05:07:14;;;;;;;;;;;7.40;63.50;;;2.91;100.00;95481.50;4973041;28;19910;-57
2023/04/26 05:09:43;;;;;;;;;;;7.50;63.50;;;3.06;100.00;95484.56;4970224;28;20004;-51
2023/04/26 05:12:09;;;;;;;;;;;7.60;63.60;;;3.19;100.00;95483.59;4943455;28;19910;-58
2023/04/26 05:14:35;;;;;;;;;;;7.70;63.60;;;3.34;100.00;95480.59;4949296;28;19918;-58
2023/04/26 05:17:00;;;;;;;;;;;7.90;63.60;;;3.47;100.00;95489.13;4942417;28;19914;-57
2023/04/26 05:19:26;;;;;;;;;;;8.10;63.60;;;3.63;100.00;95492.19;4938303;28;19925;-58
2023/04/26 05:21:52;;;;;;;;;;;8.20;63.50;;;3.83;100.00;95497.22;4934328;28;19917;-58
2023/04/26 05:24:18;;;;;;;;;;;8.50;63.50;;;3.85;100.00;95493.28;4953751;28;19921;-56
2023/04/26 05:26:44;;;;;;;;;;;8.70;63.40;;;4.01;100.00;95497.16;4952875;28;19937;-52
2023/04/26 05:29:10;;;;;;;;;;;8.90;63.30;;;4.25;100.00;95500.63;4952079;28;19976;-58
2023/04/26 05:31:35;;;;;;;;;;;9.10;63.10;;;4.40;100.00;95497.56;4953422;28;19910;-58
2023/04/26 05:34:01;;;;;;;;;;;9.30;63.00;;;4.63;100.00;95502.03;4952219;28;20029;-58
2023/04/26 05:36:27;;;;;;;;;;;9.60;62.90;;;4.80;100.00;95507.47;4953620;28;19918;-58
2023/04/26 05:38:52;;;;;;;;;;;9.80;62.70;;;4.89;100.00;95498.16;4953552;28;19910;-58
2023/04/26 05:41:18;;;;;;;;;;;10.10;62.60;;;5.01;100.00;95491.00;4950510;28;20389;-58
2023/04/26 05:43:46;;;;;;;;;;;10.30;62.30;;;5.10;100.00;95494.91;4952719;28;20037;-58
2023/04/26 05:46:12;;;;;;;;;;;10.50;62.10;;;5.06;100.00;95495.63;4955838;28;19909;-52
2023/04/26 05:48:38;;;;;;;;;;;10.80;61.90;;;5.26;100.00;95496.03;4954300;28;19917;-57
2023/04/26 05:51:04;;;;;;;;;;;10.90;61.50;;;5.46;100.00;95500.94;4950951;28;19913;-56
2023/04/26 05:53:29;;;;;;;;;;;11.20;61.40;;;5.62;100.00;95503.88;4899535;28;21250;-58
2023/04/26 05:55:55;;;;;;;;;;;11.50;61.30;;;5.78;100.00;95505.78;4952428;28;20306;-52
2023/04/26 05:58:21;;;;;;;;;;;11.70;61.20;;;5.86;100.00;95508.06;4947616;28;20350;-55
2023/04/26 06:00:47;;;;;;;;;;;11.90;61.00;;;6.17;100.00;95520.00;4954331;28;19910;-57
2023/04/26 06:03:12;;;;;;;;;;;12.20;61.00;;;6.34;100.00;95516.59;4931946;29;20293;-57
2023/04/26 06:05:38;;;;;;;;;;;12.50;60.90;;;6.55;100.00;95518.53;4952024;28;19917;-53
2023/04/26 06:08:04;;;;;;;;;;;12.70;61.40;;;6.64;100.00;95518.91;4957132;28;19910;-54
2023/04/26 06:10:30;;;;;;;;;;;12.90;60.40;;;6.96;100.00;95511.19;4969040;28;20396;-54
2023/04/26 06:12:56;;;;;;;;;;;13.10;60.30;;;7.26;99.50;95513.44;4943098;28;19914;-57
2023/04/26 06:15:22;;;;;;;;;;;13.40;60.20;;;7.57;96.75;95517.28;4937554;29;19919;-57
2023/04/26 06:17:47;;;;;;;;;;;13.60;60.10;;;7.84;95.49;95513.91;4953204;28;20341;-55
2023/04/26 06:20:13;;;;;;;;;;;13.90;60.20;;;8.07;93.37;95521.56;4968800;23;19944;-53
2023/04/26 06:22:39;;;;;;;;;;;14.10;60.00;;;8.25;89.72;95519.63;4953520;28;19914;-50
2023/04/26 06:25:07;;;;;;;;;;;14.40;60.00;;;8.46;89.32;95517.97;4955511;28;19917;-50
2023/04/26 06:27:32;;;;;;;;;;;14.70;59.90;;;8.69;87.13;95522.97;4956341;28;19943;-53
2023/04/26 06:29:58;;;;;;;;;;;14.90;59.60;;;8.93;85.54;95520.75;4955901;28;19956;-51
2023/04/26 06:32:25;;;;;;;;;;;15.20;59.40;;;9.16;84.25;95516.91;4956584;28;19917;-50
2023/04/26 06:34:51;;;;;;;;;;;15.40;59.10;;;9.30;83.36;95521.75;4955804;28;19914;-53
2023/04/26 06:37:16;;;;;;;;;;;15.60;58.90;;;9.39;82.30;95534.31;4956539;28;20375;-47
2023/04/26 06:39:42;;;;;;;;;;;15.60;58.60;;;9.44;81.89;95521.03;4954917;28;19910;-48
2023/04/26 06:42:08;;;;;;;;;;;15.60;58.60;;;9.47;81.39;95520.53;4955534;28;19914;-49
2023/04/26 06:44:33;;;;;;;;;;;15.50;58.20;;;9.47;79.77;95522.41;4956320;28;19916;-53
2023/04/26 06:46:59;;;;;;;;;;;15.50;58.10;;;9.46;77.92;95520.78;4955342;28;20372;-51
2023/04/26 06:49:25;;;;;;;;;;;15.50;57.90;;;9.25;79.05;95520.69;4956174;28;19917;-47
2023/04/26 06:51:51;;;;;;;;;;;15.50;57.70;;;9.12;79.24;95530.94;4970144;28;19910;-49
2023/04/26 06:54:18;;;;;;;;;;;15.50;57.60;;;8.98;80.52;95523.44;4956056;28;19910;-49
2023/04/26 06:56:44;;;;;;;;;;;15.50;57.40;;;9.02;81.14;95529.84;4956129;28;20275;-49
2023/04/26 06:59:10;;;;;;;;;;;15.40;57.30;;;9.04;81.28;95521.59;4970085;28;19910;-47
2023/04/26 07:01:38;;;;;;;;;;;15.40;57.20;;;9.10;80.35;95523.25;4955715;28;19933;-50
2023/04/26 07:04:11;;;;;;;;;;;15.50;57.10;;;9.16;77.52;95524.88;4955242;28;19956;-50
2023/04/26 07:06:40;;;;;;;;;;;15.50;57.70;;;9.20;80.06;95517.19;4956130;28;19917;-48
2023/04/26 07:09:06;;;;;;;;;;;15.60;57.00;;;9.33;78.92;95516.72;4969150;28;19914;-48
2023/04/26 07:11:32;;;;;;;;;;;15.70;57.00;;;9.41;77.68;95513.59;4964230;28;19910;-50
2023/04/26 07:13:58;;;;;;;;;;;15.80;56.80;;;9.42;77.07;95517.84;4955763;28;20020;-48
2023/04/26 07:16:25;;;;;;;;;;;15.80;56.70;;;9.50;77.99;95511.25;4954709;28;19910;-48
2023/04/26 07:18:57;;;;;;;;;;;15.80;56.70;;;9.76;77.17;95519.31;4955477;28;20315;-51
2023/04/26 07:21:24;;;;;;;;;;;16.10;56.60;;;10.17;77.25;95515.72;4955613;28;19910;-48
2023/04/26 07:23:57;;;;;;;;;;;16.60;56.40;;;10.74;76.12;95519.25;4971723;28;20000;-48
2023/04/26 07:26:25;;;;;;;;;;;17.30;56.20;;;10.95;75.48;95516.59;4974963;28;19909;-48
2023/04/26 07:28:51;;;;;;;;;;;18.00;55.80;;;11.26;70.13;95509.34;4964385;28;20356;-47
2023/04/26 07:31:20;;;;;;;;;;;18.70;55.30;;;11.83;67.89;95521.44;4954113;28;20273;-48
2023/04/26 07:33:46;;;;;;;;;;;19.20;54.80;;;12.20;66.28;95514.88;4954796;28;19910;-48
2023/04/26 07:36:12;;;;;;;;;;;19.50;54.50;;;12.48;67.74;95506.16;4974727;28;19914;-50
2023/04/26 07:38:38;;;;;;;;;;;19.70;54.30;;;12.72;62.95;95511.59;4972059;28;20004;-51
2023/04/26 07:41:04;;;;;;;;;;;19.90;54.00;;;12.94;62.60;95513.81;4950839;28;19990;-51
2023/04/26 07:43:30;;;;;;;;;;;20.30;53.50;;;13.48;67.24;95508.53;4957565;28;20289;-49
2023/04/26 07:46:00;;;;;;;;;;;20.80;53.00;;;13.82;64.20;95508.38;4957724;28;19917;-49
2023/04/26 07:48:27;;;;;;;;;;;21.20;52.70;;;13.80;62.25;95503.31;4963308;28;19948;-48
2023/04/26 07:50:54;;;;;;;;;;;21.40;52.40;;;13.70;63.74;95502.66;4960534;28;19914;-52
2023/04/26 07:53:21;;;;;;;;;;;21.50;52.00;;;13.74;62.83;95501.78;4961194;28;19985;-49
2023/04/26 07:55:47;;;;;;;;;;;21.70;51.60;;;13.96;60.90;95509.28;4954174;28;20012;-49
2023/04/26 07:58:13;;;;;;;;;;;22.10;51.10;;;14.24;60.55;95504.09;4954028;28;20005;-50
2023/04/26 08:00:40;;;;;;;;;;;22.50;50.80;;;14.33;59.80;95505.03;4954877;28;20361;-48
2023/04/26 08:03:07;;;;;;;;;;;22.60;50.50;;;14.47;58.63;95503.22;4954484;28;20017;-54
2023/04/26 08:05:33;;;;;;;;;;;22.70;50.20;;;14.33;57.60;95513.06;4968741;28;19910;-48
2023/04/26 08:08:00;;;;;;;;;;;22.60;50.10;;;14.33;59.02;95497.00;4974178;28;19914;-50
2023/04/26 08:10:26;;;;;;;;;;;22.50;49.90;;;14.39;59.05;95505.78;4960511;28;19917;-48
2023/04/26 08:12:53;;;;;;;;;;;22.40;49.80;;;14.31;59.90;95508.00;4954643;28;19909;-48
2023/04/26 08:15:19;;;;;;;;;;;22.40;49.60;;;14.10;59.84;95501.31;4954940;28;19956;-49
2023/04/26 08:17:45;;;;;;;;;;;22.50;49.30;;;14.01;60.77;95503.06;4953766;28;19917;-47
2023/04/26 08:20:11;;;;;;;;;;;22.30;49.20;;;13.91;61.56;95505.84;4954537;28;20372;-48
2023/04/26 08:22:37;;;;;;;;;;;22.00;49.00;;;13.80;61.26;95497.16;4953826;28;19914;-48
2023/04/26 08:25:04;;;;;;;;;;;21.80;49.00;;;13.64;61.70;95497.34;4954602;28;19910;-47
2023/04/26 08:27:30;;;;;;;;;;;21.60;49.00;;;13.67;60.93;95495.97;4953643;28;20381;-48
2023/04/26 08:29:56;;;;;;;;;;;21.40;48.90;;;13.50;61.31;95498.31;4952190;28;20300;-49
2023/04/26 08:32:22;;;;;;;;;;;21.30;49.00;;;13.43;59.79;95494.09;4954106;28;19917;-48
2023/04/26 08:34:47;;;;;;;;;;;21.20;49.00;;;13.62;62.41;95496.81;4961589;28;19916;-48
2023/04/26 08:37:13;;;;;;;;;;;21.20;48.90;;;13.51;60.28;95498.03;4973676;28;20012;-49
2023/04/26 08:39:40;;;;;;;;;;;21.20;49.00;;;13.56;61.33;95499.84;4973465;28;19920;-48
2023/04/26 08:42:14;;;;;;;;;;;21.30;48.80;;;13.51;61.29;95503.38;4962376;28;20366;-48
2023/04/26 08:44:45;;;;;;;;;;;21.50;48.50;;;13.60;59.33;95504.38;4968694;28;19920;-48
2023/04/26 08:47:36;;;;;;;;;;;21.50;48.40;;;13.68;58.20;95510.16;4964841;28;20339;-50
2023/04/26 08:50:04;;;;;;;;;;;21.60;48.30;;;13.36;59.56;95503.56;4972269;28;20005;-48
2023/04/26 08:52:31;;;;;;;;;;;21.70;47.90;;;12.97;60.42;95501.75;4964496;28;20428;-49
2023/04/26 08:54:59;;;;;;;;;;;21.60;47.80;;;13.00;60.73;95498.50;4953988;28;19972;-49
2023/04/26 08:57:25;;;;;;;;;;;21.40;47.80;;;13.31;58.56;95503.59;4953517;28;19910;-48
2023/04/26 08:59:52;;;;;;;;;;;21.40;47.90;;;13.74;60.94;95501.00;4969621;28;20452;-48
2023/04/26 09:02:22;;;;;;;;;;;21.60;47.70;;;14.13;59.05;95506.09;4973037;28;20012;-48
2023/04/26 09:04:50;;;;;;;;;;;22.00;47.40;;;14.41;59.12;95499.00;4971727;28;20008;-49
2023/04/26 09:07:31;;;;;;;;;;;22.20;47.10;;;14.34;57.47;95515.44;4973182;28;19909;-49
2023/04/26 09:09:58;;;;;;;;;;;22.50;46.70;;;14.47;58.57;95508.56;4964641;28;19916;-50
2023/04/26 09:12:25;;;;;;;;;;;22.80;46.50;;;14.75;57.45;95509.50;4960551;28;20285;-52
2023/04/26 09:14:51;;;;;;;;;;;23.10;46.20;;;14.98;58.39;95507.81;4953633;28;19914;-49
2023/04/26 09:17:32;;;;;;;;;;;23.40;45.90;;;15.25;55.60;95508.97;4964989;28;19916;-50
2023/04/26 09:20:00;;;;;;;;;;;23.70;45.70;;;15.13;56.92;95506.75;4972618;28;19924;-50
2023/04/26 09:22:36;;;;;;;;;;;23.80;45.60;;;15.02;58.09;95506.13;4966667;28;19967;-49
2023/04/26 09:25:04;;;;;;;;;;;23.60;45.60;;;14.39;58.79;95511.13;4968264;28;19910;-49
2023/04/26 09:27:39;;;;;;;;;;;23.40;45.60;;;14.32;57.86;95508.78;4953506;28;19910;-49
2023/04/26 09:30:17;;;;;;;;;;;23.10;45.60;;;14.16;56.86;95508.19;4950881;28;19953;-51
2023/04/26 09:33:05;;;;;;;;;;;22.90;45.60;;;14.14;55.65;95510.38;4953249;28;19910;-48
2023/04/26 09:35:42;;;;;;;;;;;22.60;45.60;;;14.33;55.30;95510.41;4952501;28;19921;-49
2023/04/26 09:38:15;;;;;;;;;;;22.50;45.70;;;14.31;57.47;95509.88;4953502;28;20005;-49
2023/04/26 09:40:50;;;;;;;;;;;22.40;45.70;;;14.26;58.85;95512.66;4951912;28;19920;-51
2023/04/26 09:43:21;;;;;;;;;;;22.20;45.70;;;14.14;58.82;95499.69;4952093;28;19970;-50
2023/04/26 09:45:55;;;;;;;;;;;22.20;45.50;;;14.35;58.60;95505.53;4961246;28;19910;-52
2023/04/26 09:48:33;;;;;;;;;;;22.20;45.50;;;14.35;56.22;95508.22;4934167;29;20293;-53
2023/04/26 09:51:12;;;;;;;;;;;22.30;45.80;;;13.72;54.19;95508.50;4934163;29;19910;-49
2023/04/26 09:53:45;;;;;;;;;;;22.30;45.30;;;13.61;55.49;95505.16;4948208;28;20336;-49
2023/04/26 09:56:18;;;;;;;;;;;22.30;45.10;;;13.96;57.21;95503.91;4952364;28;19921;-51
2023/04/26 09:58:50;;;;;;;;;;;22.30;45.10;;;14.31;56.68;95501.84;4959472;28;19941;-49
2023/04/26 10:01:18;;;;;;;;;;;22.30;45.10;;;14.22;55.83;95490.97;4955929;28;19914;-49
2023/04/26 10:03:45;;;;;;;;;;;22.30;45.00;;;14.61;58.67;95492.59;4963610;28;20020;-50
2023/04/26 10:06:15;;;;;;;;;;;22.50;45.10;;;14.82;54.13;95495.72;4953530;28;19917;-49
2023/04/26 10:08:42;;;;;;;;;;;22.70;45.10;;;14.95;56.28;95488.84;4954322;28;19955;-49
2023/04/26 10:11:10;;;;;;;;;;;22.70;45.00;;;14.69;58.52;95502.63;4960224;28;20061;-50
2023/04/26 10:13:37;;;;;;;;;;;22.80;45.00;;;14.74;55.43;95493.72;4957709;28;19910;-52
2023/04/26 10:16:05;;;;;;;;;;;22.80;45.00;;;14.93;56.35;95496.38;4960281;28;19918;-50
2023/04/26 10:18:32;;;;;;;;;;;22.70;44.90;;;14.67;54.54;95494.09;4954093;28;19914;-52
2023/04/26 10:21:19;;;;;;;;;;;22.60;45.00;;;14.64;56.29;95496.59;4958802;28;20262;-51
2023/04/26 10:23:48;;;;;;;;;;;22.40;45.00;;;14.84;52.45;95501.59;4962020;28;19921;-51
2023/04/26 10:26:53;;;;;;;;;;;22.50;45.00;;;15.48;51.54;95491.91;4972300;28;20379;-52
2023/04/26 10:29:21;;;;;;;;;;;23.10;44.70;;;16.04;48.70;95487.31;4965268;28;20532;-52
2023/04/26 10:32:04;;;;;;;;;;;23.90;44.20;;;16.68;47.18;95478.38;4955667;28;20423;-49
2023/04/26 10:34:33;;;;;;;;;;;24.80;43.70;;;17.26;47.57;95472.09;4956889;28;19914;-50
2023/04/26 10:37:16;;;;;;;;;;;25.40;43.30;;;17.67;45.32;95474.47;4951614;28;19910;-50
2023/04/26 10:39:44;;;;;;;;;;;25.90;42.70;;;17.78;43.20;95466.97;4957071;28;20353;-49
2023/04/26 10:42:29;;;;;;;;;;;26.40;42.30;;;17.98;42.59;95471.75;4957397;28;20365;-50
2023/04/26 10:45:19;;;;;;;;;;;26.90;41.70;;;18.00;45.42;95466.06;4953060;28;19992;-50
2023/04/26 10:47:45;;;;;;;;;;;27.20;41.40;;;18.03;42.41;95470.81;4952107;28;19910;-50
2023/04/26 10:50:11;;;;;;;;;;;27.30;41.20;;;18.07;41.54;95465.59;4952030;28;19910;-50
2023/04/26 10:53:00;;;;;;;;;;;27.30;41.00;;;18.39;40.72;95458.94;4961842;28;20269;-50
2023/04/26 10:55:40;;;;;;;;;;;27.30;40.70;;;18.61;40.46;95463.38;4975238;28;19920;-54
2023/04/26 10:58:32;;;;;;;;;;;27.30;40.50;;;18.89;41.60;95455.78;4971626;28;19961;-50
2023/04/26 11:01:12;;;;;;;;;;;27.40;40.50;;;18.69;39.56;95449.91;4954712;28;19910;-50
2023/04/26 11:03:40;;;;;;;;;;;27.70;40.40;;;18.76;41.21;95443.25;4955815;28;20432;-51
2023/04/26 11:06:15;;;;;;;;;;;28.00;40.70;;;18.32;42.33;95451.34;4973287;28;19941;-50
2023/04/26 11:08:42;;;;;;;;;;;28.10;39.60;;;17.63;42.69;95449.28;4975234;28;19920;-50
2023/04/26 11:11:11;;;;;;;;;;;28.10;39.20;;;18.01;41.83;95441.47;4956475;28;19917;-52
2023/04/26 11:13:41;;;;;;;;;;;28.20;39.00;;;18.56;40.91;95439.28;4955836;28;20480;-50
2023/04/26 11:16:13;;;;;;;;;;;28.40;38.80;;;19.02;38.94;95438.63;4954935;28;20013;-53
2023/04/26 11:18:42;;;;;;;;;;;28.80;38.80;;;19.61;40.67;95441.38;4955597;28;19945;-51
2023/04/26 11:21:09;;;;;;;;;;;29.10;38.50;;;19.63;36.97;95433.75;4955567;28;20360;-52
2023/04/26 11:23:35;;;;;;;;;;;29.40;38.10;;;19.56;34.67;95430.78;4968812;28;19918;-50
2023/04/26 11:26:10;;;;;;;;;;;29.60;37.50;;;19.95;36.94;95436.94;4974990;28;19916;-51